Seiyu Maru — JD3189 — position and weather

sailwx.info

Track history (hours):
 
Tides and Currents Weather Stations Pressure Air Temp Water Temp Dewpoint Dewpoint Depression Visibility Wind Speed Wind Dir Waves Ship Positions

Seiyu Maru

Last reported at 2017-Sep-20 11:38 UTC. Time now 2017-Sep-21 14:07 UTC.
Position N 34°02' E 135°01'.

Length 75 m; draft 4.5 m.

Type: Cargo ship. MMSI: 431002433.

Date/timePositionNaut miles runAvg speedWind from/ knotsBaromVisibWave heightAir tempDewpointWater temp
2017-Sep-20 11:38N 34°02' E 135°01'111.1
2017-Sep-20 11:30N 34°03' E 135°01'510.8
2017-Sep-20 11:00N 34°09' E 135°01'510.8
2017-Sep-20 10:30N 34°14' E 135°02'510.2
2017-Sep-20 10:00N 34°19' E 135°04'510.3
2017-Sep-20 09:29N 34°23' E 135°08'611.2
2017-Sep-20 08:57N 34°28' E 135°12'511.0
2017-Sep-20 08:29N 34°32' E 135°16'510.9
2017-Sep-20 08:00N 34°36' E 135°21'4 7.5
2017-Sep-20 07:30N 34°37' E 135°25'0 0.3
2017-Sep-20 07:00N 34°38' E 135°25'0 0.0
2017-Sep-20 06:30N 34°38' E 135°25'0 0.0
2017-Sep-20 06:00N 34°38' E 135°25'0 0.0
2017-Sep-20 05:30N 34°38' E 135°25'0 0.0
2017-Sep-20 05:00N 34°38' E 135°25'0 0.0
2017-Sep-20 04:30N 34°38' E 135°25'0 0.0
2017-Sep-20 04:00N 34°38' E 135°25'0 0.0
2017-Sep-20 03:30N 34°38' E 135°25'0 0.0
2017-Sep-19 07:54N 34°38' E 135°25'1 2.3
2017-Sep-19 07:30N 34°38' E 135°24'3 6.2
2017-Sep-19 07:00N 34°40' E 135°27'0 0.0
2017-Sep-19 06:30N 34°40' E 135°27'1 1.3
2017-Sep-19 06:00N 34°40' E 135°26'0 0.0
2017-Sep-19 05:30N 34°40' E 135°26'0 0.0
2017-Sep-19 05:00N 34°40' E 135°26'0 0.0
2017-Sep-19 04:30N 34°40' E 135°26'0 0.0
2017-Sep-19 04:00N 34°40' E 135°26'0 0.0
2017-Sep-19 03:30N 34°40' E 135°26'0 0.0
2017-Sep-19 03:00N 34°40' E 135°26'0 0.0
2017-Sep-19 02:30N 34°40' E 135°26'0 0.0
2017-Sep-19 02:00N 34°40' E 135°26'0 0.4
2017-Sep-19 01:30N 34°39' E 135°26'1 2.0
2017-Sep-19 00:59N 34°40' E 135°27'0 0.0
2017-Sep-19 00:27N 34°40' E 135°27'1 1.5
2017-Sep-19 00:00N 34°40' E 135°26'4 8.3
2017-Sep-18 23:30N 34°38' E 135°21'5 9.9
2017-Sep-18 23:00N 34°36' E 135°16'510.6
2017-Sep-18 22:30N 34°35' E 135°10'510.4
2017-Sep-18 22:00N 34°36' E 135°03'4 7.8
2017-Sep-18 21:30N 34°37' E 134°59'  
2017-Sep-15 11:51N 34°36' E 134°54'411.3
2017-Sep-15 11:30N 34°37' E 134°58'510.3
2017-Sep-15 11:00N 34°36' E 135°04'510.4
2017-Sep-15 10:29N 34°30' E 135°05'1510.5
2017-Sep-15 09:04N 34°15' E 135°03'110.9
2017-Sep-15 09:00N 34°15' E 135°04'3 5.2
2017-Sep-15 08:30N 34°15' E 135°07'0 0.0
2017-Sep-15 08:00N 34°15' E 135°07'0 0.0
2017-Sep-15 07:31N 34°15' E 135°07'0 0.0
2017-Sep-15 07:00N 34°15' E 135°07'0 0.0
2017-Sep-15 06:31N 34°15' E 135°07'0 0.0
2017-Sep-15 06:00N 34°15' E 135°07'0 0.0
2017-Sep-15 05:31N 34°15' E 135°07'0 0.0
2017-Sep-15 05:00N 34°15' E 135°07'0 0.0
2017-Sep-15 04:28N 34°15' E 135°07'0 0.0
2017-Sep-15 03:58N 34°15' E 135°07'0 0.1
2017-Sep-15 03:25N 34°15' E 135°07'0 0.0
2017-Sep-15 02:59N 34°15' E 135°07'0 0.1
2017-Sep-15 02:28N 34°15' E 135°07'0 0.2
2017-Sep-15 02:00N 34°14' E 135°07'1 2.1
2017-Sep-15 01:28N 34°15' E 135°06'0 0.0
2017-Sep-15 00:58N 34°15' E 135°06'0 0.0
2017-Sep-15 00:28N 34°15' E 135°06'0 0.0
2017-Sep-14 23:58N 34°15' E 135°06'0 0.0
2017-Sep-14 23:28N 34°15' E 135°06'0 0.0
2017-Sep-14 22:49N 34°15' E 135°06'0 0.0
2017-Sep-14 22:28N 34°15' E 135°06'0 0.0
2017-Sep-14 21:56N 34°15' E 135°06'0 0.0
2017-Sep-14 21:28N 34°15' E 135°06'0 0.0
2017-Sep-14 20:55N 34°15' E 135°06'0 0.0
2017-Sep-14 20:28N 34°15' E 135°06'0 0.0
2017-Sep-14 19:55N 34°15' E 135°06'0 0.0
2017-Sep-14 19:28N 34°15' E 135°06'0 0.0
2017-Sep-14 18:58N 34°15' E 135°06'0 0.0
2017-Sep-14 18:28N 34°15' E 135°06'0 0.0
2017-Sep-14 17:52N 34°15' E 135°06'0 0.0
2017-Sep-14 17:19N 34°15' E 135°06'0 0.0
2017-Sep-14 16:58N 34°15' E 135°06'0 0.0
2017-Sep-14 16:28N 34°15' E 135°06'0 0.0
2017-Sep-14 15:58N 34°15' E 135°06'0 0.0
2017-Sep-14 15:28N 34°15' E 135°06'0 0.0
2017-Sep-14 14:58N 34°15' E 135°06'0 0.0
2017-Sep-14 14:28N 34°15' E 135°06'0 0.0
2017-Sep-14 13:58N 34°15' E 135°06'0 0.0
2017-Sep-14 13:28N 34°15' E 135°06'0 0.0
2017-Sep-14 12:58N 34°15' E 135°06'0 0.0
2017-Sep-14 12:28N 34°15' E 135°06'0 0.0
2017-Sep-14 11:58N 34°15' E 135°06'0 0.0
2017-Sep-14 11:28N 34°15' E 135°06'0 0.0
2017-Sep-14 10:58N 34°15' E 135°06'0 0.0
2017-Sep-14 10:28N 34°15' E 135°06'0 0.1
2017-Sep-14 09:58N 34°15' E 135°06'0 0.0
2017-Sep-14 09:25N 34°15' E 135°06'0 0.0
2017-Sep-14 08:58N 34°15' E 135°06'0 0.0
2017-Sep-14 08:28N 34°15' E 135°06'0 0.0
2017-Sep-14 07:55N 34°15' E 135°06'0 0.0
2017-Sep-14 07:28N 34°15' E 135°06'0 0.0
2017-Sep-14 06:58N 34°15' E 135°06'0 0.0
2017-Sep-14 06:28N 34°15' E 135°06'0 0.1
2017-Sep-14 05:58N 34°15' E 135°06'0 0.0
2017-Sep-14 05:28N 34°15' E 135°06'0 0.0
2017-Sep-14 04:58N 34°15' E 135°06'0 0.0
2017-Sep-14 04:28N 34°15' E 135°06'0 0.0
2017-Sep-14 03:58N 34°15' E 135°06'0 0.1
2017-Sep-14 03:19N 34°15' E 135°06'0 0.0
2017-Sep-14 02:58N 34°15' E 135°06'0 0.0
2017-Sep-14 02:25N 34°15' E 135°06'0 0.0
2017-Sep-14 01:58N 34°15' E 135°06'0 0.1
2017-Sep-14 01:25N 34°15' E 135°06'0 0.0
2017-Sep-14 00:58N 34°15' E 135°06'0 0.0
2017-Sep-14 00:28N 34°15' E 135°06'0 0.0
2017-Sep-13 23:58N 34°15' E 135°06'0 0.0
2017-Sep-13 23:25N 34°15' E 135°06'0 0.0
2017-Sep-13 22:58N 34°15' E 135°06'0 0.0
2017-Sep-13 22:28N 34°15' E 135°06'0 0.0
2017-Sep-13 21:58N 34°15' E 135°06'0 0.0
2017-Sep-13 21:28N 34°15' E 135°06'0 0.0
2017-Sep-13 20:58N 34°15' E 135°06'0 0.0
2017-Sep-13 20:28N 34°15' E 135°06'0 0.0
2017-Sep-13 19:58N 34°15' E 135°06'0 0.0
2017-Sep-13 19:28N 34°15' E 135°06'1 2.8
2017-Sep-13 19:00N 34°14' E 135°05'612.1
2017-Sep-13 18:30N 34°08' E 135°02'  
Track history (hours):
 
Tides and Currents Weather Stations Pressure Air Temp Water Temp Dewpoint Dewpoint Depression Visibility Wind Speed Wind Dir Waves Ship Positions

Seiyu Maru

Last reported at 2017-Sep-20 11:38 UTC. Time now 2017-Sep-21 14:07 UTC.
Position N 34°02' E 135°01'.

Length 75 m; draft 4.5 m.

Type: Cargo ship. MMSI: 431002433.

Date/timePositionNaut miles runAvg speedWind from/ knotsBaromVisibWave heightAir tempDewpointWater temp
2017-Sep-20 11:38N 34°02' E 135°01'111.1
2017-Sep-20 11:30N 34°03' E 135°01'510.8
2017-Sep-20 11:00N 34°09' E 135°01'510.8
2017-Sep-20 10:30N 34°14' E 135°02'510.2
2017-Sep-20 10:00N 34°19' E 135°04'510.3
2017-Sep-20 09:29N 34°23' E 135°08'611.2
2017-Sep-20 08:57N 34°28' E 135°12'511.0
2017-Sep-20 08:29N 34°32' E 135°16'510.9
2017-Sep-20 08:00N 34°36' E 135°21'4 7.5
2017-Sep-20 07:30N 34°37' E 135°25'0 0.3
2017-Sep-20 07:00N 34°38' E 135°25'0 0.0
2017-Sep-20 06:30N 34°38' E 135°25'0 0.0
2017-Sep-20 06:00N 34°38' E 135°25'0 0.0
2017-Sep-20 05:30N 34°38' E 135°25'0 0.0
2017-Sep-20 05:00N 34°38' E 135°25'0 0.0
2017-Sep-20 04:30N 34°38' E 135°25'0 0.0
2017-Sep-20 04:00N 34°38' E 135°25'0 0.0
2017-Sep-20 03:30N 34°38' E 135°25'0 0.0
2017-Sep-19 07:54N 34°38' E 135°25'1 2.3
2017-Sep-19 07:30N 34°38' E 135°24'3 6.2
2017-Sep-19 07:00N 34°40' E 135°27'0 0.0
2017-Sep-19 06:30N 34°40' E 135°27'1 1.3
2017-Sep-19 06:00N 34°40' E 135°26'0 0.0
2017-Sep-19 05:30N 34°40' E 135°26'0 0.0
2017-Sep-19 05:00N 34°40' E 135°26'0 0.0
2017-Sep-19 04:30N 34°40' E 135°26'0 0.0
2017-Sep-19 04:00N 34°40' E 135°26'0 0.0
2017-Sep-19 03:30N 34°40' E 135°26'0 0.0
2017-Sep-19 03:00N 34°40' E 135°26'0 0.0
2017-Sep-19 02:30N 34°40' E 135°26'0 0.0
2017-Sep-19 02:00N 34°40' E 135°26'0 0.4
2017-Sep-19 01:30N 34°39' E 135°26'1 2.0
2017-Sep-19 00:59N 34°40' E 135°27'0 0.0
2017-Sep-19 00:27N 34°40' E 135°27'1 1.5
2017-Sep-19 00:00N 34°40' E 135°26'4 8.3
2017-Sep-18 23:30N 34°38' E 135°21'5 9.9
2017-Sep-18 23:00N 34°36' E 135°16'510.6
2017-Sep-18 22:30N 34°35' E 135°10'510.4
2017-Sep-18 22:00N 34°36' E 135°03'4 7.8
2017-Sep-18 21:30N 34°37' E 134°59'  
2017-Sep-15 11:51N 34°36' E 134°54'411.3
2017-Sep-15 11:30N 34°37' E 134°58'510.3
2017-Sep-15 11:00N 34°36' E 135°04'510.4
2017-Sep-15 10:29N 34°30' E 135°05'1510.5
2017-Sep-15 09:04N 34°15' E 135°03'110.9
2017-Sep-15 09:00N 34°15' E 135°04'3 5.2
2017-Sep-15 08:30N 34°15' E 135°07'0 0.0
2017-Sep-15 08:00N 34°15' E 135°07'0 0.0
2017-Sep-15 07:31N 34°15' E 135°07'0 0.0
2017-Sep-15 07:00N 34°15' E 135°07'0 0.0
2017-Sep-15 06:31N 34°15' E 135°07'0 0.0
2017-Sep-15 06:00N 34°15' E 135°07'0 0.0
2017-Sep-15 05:31N 34°15' E 135°07'0 0.0
2017-Sep-15 05:00N 34°15' E 135°07'0 0.0
2017-Sep-15 04:28N 34°15' E 135°07'0 0.0
2017-Sep-15 03:58N 34°15' E 135°07'0 0.1
2017-Sep-15 03:25N 34°15' E 135°07'0 0.0
2017-Sep-15 02:59N 34°15' E 135°07'0 0.1
2017-Sep-15 02:28N 34°15' E 135°07'0 0.2
2017-Sep-15 02:00N 34°14' E 135°07'1 2.1
2017-Sep-15 01:28N 34°15' E 135°06'0 0.0
2017-Sep-15 00:58N 34°15' E 135°06'0 0.0
2017-Sep-15 00:28N 34°15' E 135°06'0 0.0
2017-Sep-14 23:58N 34°15' E 135°06'0 0.0
2017-Sep-14 23:28N 34°15' E 135°06'0 0.0
2017-Sep-14 22:49N 34°15' E 135°06'0 0.0
2017-Sep-14 22:28N 34°15' E 135°06'0 0.0
2017-Sep-14 21:56N 34°15' E 135°06'0 0.0
2017-Sep-14 21:28N 34°15' E 135°06'0 0.0
2017-Sep-14 20:55N 34°15' E 135°06'0 0.0
2017-Sep-14 20:28N 34°15' E 135°06'0 0.0
2017-Sep-14 19:55N 34°15' E 135°06'0 0.0
2017-Sep-14 19:28N 34°15' E 135°06'0 0.0
2017-Sep-14 18:58N 34°15' E 135°06'0 0.0
2017-Sep-14 18:28N 34°15' E 135°06'0 0.0
2017-Sep-14 17:52N 34°15' E 135°06'0 0.0
2017-Sep-14 17:19N 34°15' E 135°06'0 0.0
2017-Sep-14 16:58N 34°15' E 135°06'0 0.0
2017-Sep-14 16:28N 34°15' E 135°06'0 0.0
2017-Sep-14 15:58N 34°15' E 135°06'0 0.0
2017-Sep-14 15:28N 34°15' E 135°06'0 0.0
2017-Sep-14 14:58N 34°15' E 135°06'0 0.0
2017-Sep-14 14:28N 34°15' E 135°06'0 0.0
2017-Sep-14 13:58N 34°15' E 135°06'0 0.0
2017-Sep-14 13:28N 34°15' E 135°06'0 0.0
2017-Sep-14 12:58N 34°15' E 135°06'0 0.0
2017-Sep-14 12:28N 34°15' E 135°06'0 0.0
2017-Sep-14 11:58N 34°15' E 135°06'0 0.0
2017-Sep-14 11:28N 34°15' E 135°06'0 0.0
2017-Sep-14 10:58N 34°15' E 135°06'0 0.0
2017-Sep-14 10:28N 34°15' E 135°06'0 0.1
2017-Sep-14 09:58N 34°15' E 135°06'0 0.0
2017-Sep-14 09:25N 34°15' E 135°06'0 0.0
2017-Sep-14 08:58N 34°15' E 135°06'0 0.0
2017-Sep-14 08:28N 34°15' E 135°06'0 0.0
2017-Sep-14 07:55N 34°15' E 135°06'0 0.0
2017-Sep-14 07:28N 34°15' E 135°06'0 0.0
2017-Sep-14 06:58N 34°15' E 135°06'0 0.0
2017-Sep-14 06:28N 34°15' E 135°06'0 0.1
2017-Sep-14 05:58N 34°15' E 135°06'0 0.0
2017-Sep-14 05:28N 34°15' E 135°06'0 0.0
2017-Sep-14 04:58N 34°15' E 135°06'0 0.0
2017-Sep-14 04:28N 34°15' E 135°06'0 0.0
2017-Sep-14 03:58N 34°15' E 135°06'0 0.1
2017-Sep-14 03:19N 34°15' E 135°06'0 0.0
2017-Sep-14 02:58N 34°15' E 135°06'0 0.0
2017-Sep-14 02:25N 34°15' E 135°06'0 0.0
2017-Sep-14 01:58N 34°15' E 135°06'0 0.1
2017-Sep-14 01:25N 34°15' E 135°06'0 0.0
2017-Sep-14 00:58N 34°15' E 135°06'0 0.0
2017-Sep-14 00:28N 34°15' E 135°06'0 0.0
2017-Sep-13 23:58N 34°15' E 135°06'0 0.0
2017-Sep-13 23:25N 34°15' E 135°06'0 0.0
2017-Sep-13 22:58N 34°15' E 135°06'0 0.0
2017-Sep-13 22:28N 34°15' E 135°06'0 0.0
2017-Sep-13 21:58N 34°15' E 135°06'0 0.0
2017-Sep-13 21:28N 34°15' E 135°06'0 0.0
2017-Sep-13 20:58N 34°15' E 135°06'0 0.0
2017-Sep-13 20:28N 34°15' E 135°06'0 0.0
2017-Sep-13 19:58N 34°15' E 135°06'0 0.0
2017-Sep-13 19:28N 34°15' E 135°06'1 2.8
2017-Sep-13 19:00N 34°14' E 135°05'612.1
2017-Sep-13 18:30N 34°08' E 135°02'  

Dump ship's entire track history